Aérodrome :
LOGIN :

S'inscrire | Disclaimer

   EN    FR    IT 

 










Légende :    VFR   VFR Marginal   IFR   IFR Intensif   IFR Très Intensif
Visi : 
Plafond : 
>= 8 km
>= 3000ft
5 à 8 km
1000 à 3000 ft
1500m à 5 km
500 à 1000 ft
800 à 1500m
200 à 500 ft
< 800m
< 200 ft
Symboles :   Orages  Brouillard  Fortes neiges  Fortes précipitations  Vent > 20 kt
SIGMETs :   Divers  Orages  Givrage  Turbulence  Onde Orograph.  Cendres Volcan.






- Altitude de l'aérodrome : 154 ft
- Code IATA : SZZ


EPSC - Szczecin Goleniow

DERNIER METAR :
  • 280000Z VRB01KT 4000 BR FEW037 M01/M01 Q1002

METARs EXPIRÉS :
  • 272330Z VRB01KT 3200 BR SCT033 BKN045 M01/M01 Q1001
  • 272300Z 18001KT 0900 R31/2000N FZFG BKN033 M01/M01 Q1001
  • 272230Z VRB01KT 0600 R31/1600D FZFG NSC M00/M01 Q1000
  • 272200Z VRB01KT 2000 R31/1900N BR NSC M00/M01 Q1000
  • 272130Z VRB01KT 4000 BR NSC 00/M00 Q0999

TAF TAF EPSC
Valide du 28 à 00h jusqu'au 29 à 00h UTC


272330Z 2800/2824 VRB03KT 3000 BR BKN040
TEMPO 2800/2807 0600 FZFG BKN003
PROB40 2800/2806 0300 FZFG OVC001
BECMG 2802/2805 27010KT
BECMG 2806/2809 8000 BKN005
BECMG 2809/2811 SCT020
TEMPO 2812/2818 28016G26KT 2000 SHSNRA BKN005 BKN010CB



MET'MAP, la Météo Aéronautique d'un coup d'oeil ! - Copyright ORBIFLY Décembre 2007 - Disclaimer

ORBIFLY MET'MAP TEAM :

Programmation & Développement : Alexandra Zaïnal
Sur une idée originale de : Baudouin d'Aumeries
Assistance à la programmation : Marc-Olivier Méhu
Soutien technique & logistique : Manuel Goepfert

Contact : metmap@orbifly.com




SOURCES & CREDITS :

   NOAA